Hovedside
METAR-TAF:

METAR-TAF

Lufthavner :

Wallis, Frankrike

breddegrad: 13-14S, lengdegrad: 176-10W, høyde over havet: 23 m

Gjeldene værobservasjon

Denne rapporten ble laget for 27 minutter siden, klokken 04:00 UTC
Vind 3 kt fra Øst-nordøst, skiftende mellom Nord og Øst
Temperatur 29°C
Luftfuktighet 74%
Trykk 1007 hPa
Sikt 10 km eller mer
Få skyer i en høyde av 2000 ft
Spredte skyer i en høyde av 2800 ft

METAR: NLWW 290400Z 06003KT 360V100 9999 FEW020 SCT028 29/24 Q1007 NOSIG

Tid: 16:27 (04:27 UTC)

Varsel

Denne rapporten ble laget for 5 timer og 27 minutter siden, klokken 23:00 UTC
Varsel gyldig fra 29. klokken 00 UTC til 29. klokken 24 UTC
Vind 5 kt fra Øst
Sikt 10 km eller mer
Spredte skyer i en høyde av 2000 ft

TAF: NLWW 282300Z 2900/2924 10005KT 9999 SCT020

Værobservasjoner og værvarsel for over 4000 flyplasser (METAR- og TAF-rapporter).

Tilgjengelige stasjoner er representert av de røde og gule prikkene på kartet.

Hold musepekeren over prikken for å se navnet på stasjonen.

Klikk så for å se værobservasjoner og -varsler.

For å forandre kartet kan du klikke på den grønne knappen med svart kryss for å zoome inn, på den grønne knappen med strek for å zoome ut, eller på de grønne pilene for å se tilstøtende kart.


METAR-TAF: